Time;durP1;ratioP1;P1;durP2;ratioP2;P2;SDS_P1;SDS_P2;PMS_P1;PMS_P2;Temp;Humidity;BMP_temperature;BMP_pressure;BME280_temperature;BME280_humidity;BME280_pressure;Samples;Min_cycle;Max_cycle;Signal;HPM_P1;HPM_P2
2022/08/21 00:01:37;;;;;;;41.20;22.40;;;;;;;18.86;75.80;98307.00;87397;1273;24034;-70
2022/08/21 00:03:39;;;;;;;37.20;21.10;;;;;;;18.86;75.84;98305.73;88326;1273;22576;-71
2022/08/21 00:05:45;;;;;;;35.90;21.70;;;;;;;18.87;75.82;98302.48;88232;1273;100263;-71
2022/08/21 00:07:46;;;;;;;35.00;21.40;;;;;;;18.88;75.87;98296.90;88452;1273;24156;-69
2022/08/21 00:09:48;;;;;;;42.10;22.10;;;;;;;18.88;75.78;98298.66;88241;1273;22583;-69
2022/08/21 00:11:50;;;;;;;41.90;21.50;;;;;;;18.88;75.86;98298.11;88290;1273;99219;-70
2022/08/21 00:13:51;;;;;;;31.00;20.80;;;;;;;18.88;75.90;98295.45;88462;1273;22811;-69
2022/08/21 00:15:53;;;;;;;39.90;21.20;;;;;;;18.88;75.79;98298.33;88262;1274;22573;-71
2022/08/21 00:17:56;;;;;;;35.50;20.70;;;;;;;18.87;75.96;98292.16;88128;1275;99732;-71
2022/08/21 00:19:57;;;;;;;34.60;20.90;;;;;;;18.87;75.96;98288.24;89013;1274;22741;-69
2022/08/21 00:21:59;;;;;;;33.10;20.70;;;;;;;18.86;76.01;98288.79;88342;1273;22701;-70
2022/08/21 00:24:01;;;;;;;37.40;20.80;;;;;;;18.86;75.94;98287.23;88167;1274;99567;-71
2022/08/21 00:26:04;;;;;;;33.90;20.60;;;;;;;18.85;76.01;98286.66;88436;1273;22561;-71
2022/08/21 00:28:06;;;;;;;33.70;20.60;;;;;;;18.84;76.07;98289.42;88183;1274;22723;-69
2022/08/21 00:30:10;;;;;;;39.80;20.30;;;;;;;18.83;76.10;98290.94;88135;1273;99188;-71
2022/08/21 00:32:11;;;;;;;39.40;21.50;;;;;;;18.81;76.16;98287.51;88196;1274;23223;-70
2022/08/21 00:34:14;;;;;;;37.20;20.70;;;;;;;18.80;76.10;98286.92;88314;1273;24204;-70
2022/08/21 00:36:16;;;;;;;38.90;21.00;;;;;;;18.80;76.19;98283.95;88323;1273;100340;-69
2022/08/21 00:38:18;;;;;;;46.30;21.00;;;;;;;18.79;76.18;98277.91;88327;1273;22574;-70
2022/08/21 00:40:35;;;;;;;35.50;20.90;;;;;;;18.78;76.27;98270.54;88243;1274;23079;-69
2022/08/21 00:42:38;;;;;;;33.60;20.10;;;;;;;18.77;76.28;98270.95;88307;1273;99103;-70
2022/08/21 00:44:43;;;;;;;35.40;20.60;;;;;;;18.76;76.20;98271.11;88287;1274;22618;-70
2022/08/21 00:46:46;;;;;;;28.20;20.00;;;;;;;18.74;76.18;98268.63;88280;1274;25451;-69
2022/08/21 00:48:48;;;;;;;33.10;20.60;;;;;;;18.72;76.27;98267.68;88401;1273;98933;-69
2022/08/21 00:50:59;;;;;;;31.30;20.30;;;;;;;18.71;76.42;98265.33;88161;1276;22661;-69
2022/08/21 00:53:03;;;;;;;32.50;20.10;;;;;;;18.70;76.27;98261.67;88310;1273;24384;-69
2022/08/21 00:55:08;;;;;;;38.20;20.40;;;;;;;18.69;76.28;98260.88;88820;1273;99170;-71
2022/08/21 00:57:16;;;;;;;36.40;19.60;;;;;;;18.68;76.48;98256.54;88759;1273;27518;-71
2022/08/21 00:59:21;;;;;;;33.50;19.90;;;;;;;18.68;76.52;98258.16;88429;1273;24811;-69
2022/08/21 01:01:23;;;;;;;41.70;20.50;;;;;;;18.65;76.46;98257.15;88342;1276;25257;-69
2022/08/21 01:03:25;;;;;;;37.20;20.80;;;;;;;18.64;76.58;98256.54;88356;1273;24274;-70
2022/08/21 01:05:27;;;;;;;38.00;20.60;;;;;;;18.64;76.45;98253.93;88286;1273;99174;-71
2022/08/21 01:07:30;;;;;;;36.00;20.00;;;;;;;18.63;76.60;98250.08;88349;1273;22571;-70
2022/08/21 01:09:32;;;;;;;36.60;19.60;;;;;;;18.62;76.63;98251.42;88327;1273;22863;-69
2022/08/21 01:11:35;;;;;;;29.80;19.60;;;;;;;18.60;76.50;98249.25;88339;1273;99250;-71
2022/08/21 01:13:44;;;;;;;40.80;20.50;;;;;;;18.58;76.56;98250.52;88420;1273;22630;-71
2022/08/21 01:15:49;;;;;;;34.80;21.40;;;;;;;18.56;76.60;98247.69;87939;1273;24771;-70
2022/08/21 01:17:51;;;;;;;31.80;20.20;;;;;;;18.54;76.61;98249.95;87722;1273;99522;-69
2022/08/21 01:19:57;;;;;;;30.30;20.10;;;;;;;18.51;76.73;98245.98;88300;1274;22576;-71
2022/08/21 01:21:59;;;;;;;40.30;21.30;;;;;;;18.50;76.84;98251.42;88407;1273;23048;-70
2022/08/21 01:24:01;;;;;;;35.30;21.60;;;;;;;18.48;76.78;98249.14;88441;1273;99485;-70
2022/08/21 01:26:04;;;;;;;35.20;22.30;;;;;;;18.46;76.87;98245.92;88526;1273;25327;-71
2022/08/21 01:28:12;;;;;;;44.10;22.90;;;;;;;18.46;76.97;98242.35;88376;1273;23185;-71
2022/08/21 01:30:20;;;;;;;43.00;23.80;;;;;;;18.45;77.01;98241.36;88242;1273;99654;-70
2022/08/21 01:32:23;;;;;;;38.50;23.10;;;;;;;18.44;76.96;98236.45;88392;1273;25814;-69
2022/08/21 01:34:25;;;;;;;44.60;23.40;;;;;;;18.43;77.08;98234.48;88416;1273;25909;-69
2022/08/21 01:36:27;;;;;;;40.00;23.70;;;;;;;18.42;77.11;98233.54;88240;1274;99144;-70
2022/08/21 01:38:29;;;;;;;45.30;23.10;;;;;;;18.40;77.03;98231.52;88465;1273;22653;-71
2022/08/21 01:40:30;;;;;;;39.90;22.20;;;;;;;18.39;76.99;98229.14;88266;1276;22684;-69
2022/08/21 01:42:34;;;;;;;46.90;22.60;;;;;;;18.37;77.09;98224.70;88480;1273;101529;-68
2022/08/21 01:44:35;;;;;;;36.10;20.90;;;;;;;18.35;77.07;98223.80;88626;1273;22701;-69
2022/08/21 01:46:37;;;;;;;38.40;21.20;;;;;;;18.33;77.06;98226.45;88449;1273;22663;-69
2022/08/21 01:48:40;;;;;;;41.00;22.70;;;;;;;18.32;77.15;98219.52;88348;1273;99120;-70
2022/08/21 01:50:41;;;;;;;38.70;21.80;;;;;;;18.31;77.13;98216.53;88509;1273;25792;-69
2022/08/21 01:52:43;;;;;;;40.30;22.80;;;;;;;18.32;77.22;98209.88;88571;1272;25235;-69
2022/08/21 01:54:45;;;;;;;37.50;22.90;;;;;;;18.33;77.22;98210.34;88270;1274;99586;-69
2022/08/21 01:56:50;;;;;;;34.60;20.90;;;;;;;18.34;77.28;98204.02;88349;1274;22692;-70
2022/08/21 01:58:51;;;;;;;34.10;22.80;;;;;;;18.33;77.25;98204.95;88364;1273;22670;-70
2022/08/21 02:00:53;;;;;;;31.30;21.60;;;;;;;18.30;77.18;98201.50;88271;1273;99502;-69
2022/08/21 02:02:55;;;;;;;35.10;21.20;;;;;;;18.27;77.14;98197.52;88456;1273;22632;-70
2022/08/21 02:04:57;;;;;;;37.20;21.70;;;;;;;18.25;77.18;98198.28;88388;1273;25329;-68
2022/08/21 02:07:00;;;;;;;40.20;21.60;;;;;;;18.21;77.18;98198.17;88448;1273;99676;-71
2022/08/21 02:09:08;;;;;;;34.60;20.20;;;;;;;18.18;77.22;98199.23;88313;1274;22557;-71
2022/08/21 02:11:09;;;;;;;56.70;22.90;;;;;;;18.14;77.30;98203.01;88335;1274;26365;-69
2022/08/21 02:13:11;;;;;;;41.20;23.40;;;;;;;18.11;77.44;98208.20;88346;1273;98885;-71
2022/08/21 02:15:14;;;;;;;40.00;23.80;;;;;;;18.11;77.41;98205.05;88391;1274;22695;-71
2022/08/21 02:17:15;;;;;;;41.10;23.00;;;;;;;18.11;77.50;98206.30;88333;1274;22766;-69
2022/08/21 02:19:17;;;;;;;32.80;22.00;;;;;;;18.11;77.53;98204.00;88203;1274;99243;-71
2022/08/21 02:21:19;;;;;;;38.60;20.80;;;;;;;18.11;77.52;98200.23;88566;1271;22734;-71
2022/08/21 02:23:20;;;;;;;44.60;22.30;;;;;;;18.09;77.48;98198.23;88346;1273;99491;-71
2022/08/21 02:25:24;;;;;;;37.30;22.50;;;;;;;18.08;77.53;98195.40;88254;1275;22633;-71
2022/08/21 02:27:26;;;;;;;33.70;22.50;;;;;;;18.05;77.46;98193.15;88554;1273;25509;-70
2022/08/21 02:29:28;;;;;;;51.90;24.20;;;;;;;18.04;77.73;98193.41;88267;1273;99735;-71
2022/08/21 02:31:30;;;;;;;33.90;23.60;;;;;;;18.03;77.63;98189.54;88567;1273;24226;-69
2022/08/21 02:33:33;;;;;;;40.20;22.10;;;;;;;18.04;77.63;98185.61;88984;1273;22603;-71
2022/08/21 02:35:36;;;;;;;39.20;23.60;;;;;;;18.03;77.64;98176.77;88351;1273;99397;-70
2022/08/21 02:37:46;;;;;;;37.80;21.90;;;;;;;18.02;77.70;98175.92;88434;1273;22568;-71
2022/08/21 02:39:48;;;;;;;43.80;23.20;;;;;;;18.00;77.59;98174.36;88276;1274;24231;-71
2022/08/21 02:41:50;;;;;;;42.50;23.90;;;;;;;17.99;77.78;98175.23;88413;1273;99106;-70
2022/08/21 02:43:51;;;;;;;39.10;22.20;;;;;;;17.98;77.69;98175.98;88346;1274;25621;-70
2022/08/21 02:45:55;;;;;;;36.80;23.00;;;;;;;17.98;77.74;98172.11;88362;1273;22782;-69
2022/08/21 02:48:00;;;;;;;34.50;22.50;;;;;;;17.97;77.82;98171.60;88385;1273;99267;-71
2022/08/21 02:50:04;;;;;;;47.50;24.50;;;;;;;17.97;77.76;98175.06;88331;1274;22571;-69
2022/08/21 02:52:06;;;;;;;38.70;24.00;;;;;;;17.96;77.84;98176.05;88536;1273;22617;-69
2022/08/21 02:54:07;;;;;;;38.30;24.80;;;;;;;17.95;77.91;98179.27;88326;1273;99094;-71
2022/08/21 02:56:12;;;;;;;44.60;24.60;;;;;;;17.95;78.01;98179.30;88331;1274;25500;-71
2022/08/21 02:58:17;;;;;;;42.50;25.50;;;;;;;17.95;78.02;98178.20;89324;1274;27575;-71
2022/08/21 03:00:20;;;;;;;46.30;25.50;;;;;;;17.96;78.05;98179.61;88223;1273;98938;-71
2022/08/21 03:02:22;;;;;;;43.30;24.60;;;;;;;17.96;78.07;98180.68;88318;1271;24229;-69
2022/08/21 03:04:23;;;;;;;41.60;25.20;;;;;;;17.96;78.03;98183.84;88428;1273;22723;-70
2022/08/21 03:06:25;;;;;;;46.10;25.70;;;;;;;17.96;78.02;98185.61;88344;1274;97916;-71
2022/08/21 03:08:26;;;;;;;36.60;24.70;;;;;;;17.96;78.16;98182.73;88483;1273;22589;-71
2022/08/21 03:10:29;;;;;;;44.10;26.60;;;;;;;17.97;78.21;98184.63;88532;1273;22656;-69
2022/08/21 03:12:30;;;;;;;37.30;24.60;;;;;;;17.98;78.22;98182.91;88327;1273;99074;-69
2022/08/21 03:14:32;;;;;;;46.10;25.50;;;;;;;17.99;78.30;98187.66;88507;1273;22577;-69
2022/08/21 03:16:34;;;;;;;53.00;25.50;;;;;;;18.00;78.25;98188.05;88426;1274;27828;-71
2022/08/21 03:18:37;;;;;;;43.90;25.90;;;;;;;18.02;78.25;98188.98;88289;1273;98138;-70
2022/08/21 03:20:41;;;;;;;44.10;25.70;;;;;;;18.04;78.33;98191.45;88462;1274;22908;-71
2022/08/21 03:22:42;;;;;;;44.10;26.90;;;;;;;18.05;78.29;98195.96;88451;1273;24830;-71
2022/08/21 03:24:45;;;;;;;40.20;27.20;;;;;;;18.06;78.27;98200.00;87444;1274;99662;-71
2022/08/21 03:26:46;;;;;;;51.10;27.60;;;;;;;18.07;78.38;98197.56;87417;1276;24478;-69
2022/08/21 03:28:48;;;;;;;51.50;28.60;;;;;;;18.09;78.31;98197.27;87322;1274;22562;-71
2022/08/21 03:30:51;;;;;;;48.40;29.00;;;;;;;18.10;78.39;98198.15;87175;1273;1527214;-70
2022/08/21 03:32:53;;;;;;;46.20;27.20;;;;;;;18.12;78.48;98196.35;88582;1271;22603;-70
2022/08/21 03:34:55;;;;;;;51.10;28.80;;;;;;;18.15;78.34;98198.10;88578;1273;23242;-70
2022/08/21 03:36:57;;;;;;;47.20;29.40;;;;;;;18.16;78.49;98198.65;88418;1273;98426;-69
2022/08/21 03:38:58;;;;;;;63.60;30.40;;;;;;;18.17;78.32;98199.83;88394;1273;24335;-71
2022/08/21 03:41:01;;;;;;;48.60;28.00;;;;;;;18.17;78.46;98201.25;88427;1275;22768;-71
2022/08/21 03:43:04;;;;;;;46.10;28.40;;;;;;;18.18;78.46;98202.09;89500;1274;99082;-72
2022/08/21 03:45:07;;;;;;;47.60;27.60;;;;;;;18.19;78.51;98202.53;88546;1275;22704;-72
2022/08/21 03:47:09;;;;;;;47.40;27.80;;;;;;;18.19;78.38;98204.44;88451;1273;22592;-72
2022/08/21 03:49:11;;;;;;;46.20;28.30;;;;;;;18.21;78.38;98206.46;88463;1274;98923;-72
2022/08/21 03:51:13;;;;;;;44.30;27.70;;;;;;;18.21;78.37;98205.03;88557;1276;22680;-70
2022/08/21 03:53:16;;;;;;;50.70;28.40;;;;;;;18.21;78.47;98211.54;88501;1276;22715;-70
2022/08/21 03:55:18;;;;;;;46.40;27.30;;;;;;;18.21;78.47;98208.36;88352;1274;98996;-70
2022/08/21 03:57:19;;;;;;;53.20;27.20;;;;;;;18.22;78.59;98210.79;88707;1273;22823;-70
2022/08/21 03:59:21;;;;;;;42.10;26.70;;;;;;;18.22;78.61;98211.48;88518;1274;99208;-72
2022/08/21 04:01:23;;;;;;;54.70;27.10;;;;;;;18.23;78.52;98213.73;88708;1272;22587;-70
2022/08/21 04:03:26;;;;;;;47.00;26.50;;;;;;;18.23;78.51;98211.42;88475;1275;25692;-70
2022/08/21 04:05:29;;;;;;;44.10;26.30;;;;;;;18.25;78.53;98213.92;88443;1273;99653;-71
2022/08/21 04:07:31;;;;;;;45.40;26.30;;;;;;;18.27;78.58;98214.42;88497;1273;22563;-72
2022/08/21 04:09:33;;;;;;;43.70;26.80;;;;;;;18.28;78.68;98213.61;88456;1274;24784;-72
2022/08/21 04:11:36;;;;;;;41.00;26.40;;;;;;;18.29;78.65;98214.77;88410;1274;99979;-71
2022/08/21 04:13:38;;;;;;;46.10;27.50;;;;;;;18.30;78.60;98219.46;88611;1273;23999;-72
2022/08/21 04:15:40;;;;;;;44.80;27.60;;;;;;;18.30;78.66;98223.71;88652;1273;22623;-71
2022/08/21 04:17:42;;;;;;;44.50;25.50;;;;;;;18.30;78.58;98223.89;88642;1273;98947;-72
2022/08/21 04:19:44;;;;;;;47.80;26.40;;;;;;;18.31;78.63;98220.45;88371;1276;22891;-71
2022/08/21 04:21:46;;;;;;;43.20;27.20;;;;;;;18.33;78.67;98221.02;88681;1273;22579;-72
2022/08/21 04:23:48;;;;;;;38.30;24.90;;;;;;;18.34;78.68;98223.38;88731;1273;99384;-71
2022/08/21 04:25:53;;;;;;;55.30;26.60;;;;;;;18.36;78.69;98227.83;88540;1273;27586;-72
2022/08/21 04:27:55;;;;;;;41.90;25.70;;;;;;;18.38;78.66;98229.78;89024;1273;22595;-71
2022/08/21 04:29:57;;;;;;;48.70;26.60;;;;;;;18.40;78.83;98230.15;88660;1273;99375;-70
2022/08/21 04:31:59;;;;;;;44.10;25.70;;;;;;;18.41;78.73;98234.99;88642;1273;22678;-72
2022/08/21 04:34:00;;;;;;;53.80;25.00;;;;;;;18.43;78.80;98232.89;88772;1273;24390;-71
2022/08/21 04:36:03;;;;;;;47.10;26.80;;;;;;;18.45;78.81;98233.25;88461;1273;100383;-71
2022/08/21 04:38:04;;;;;;;46.10;26.90;;;;;;;18.46;78.85;98226.84;88577;1275;22618;-71
2022/08/21 04:40:08;;;;;;;46.80;27.70;;;;;;;18.50;78.80;98227.77;88818;1273;24267;-72
2022/08/21 04:42:10;;;;;;;42.90;27.30;;;;;;;18.53;78.83;98226.41;89068;1273;99923;-71
2022/08/21 04:44:12;;;;;;;49.00;29.20;;;;;;;18.56;78.87;98228.29;88751;1272;22911;-71
2022/08/21 04:46:13;;;;;;;50.10;30.30;;;;;;;18.58;78.82;98230.98;88628;1272;25333;-71
2022/08/21 04:48:19;;;;;;;52.90;28.40;;;;;;;18.60;78.85;98233.95;88540;1273;98972;-72
2022/08/21 04:50:29;;;;;;;42.80;29.10;;;;;;;18.62;78.81;98234.86;88556;1274;22720;-71
2022/08/21 04:52:30;;;;;;;54.10;30.10;;;;;;;18.65;78.89;98233.33;88637;1273;23225;-71
2022/08/21 04:54:32;;;;;;;50.80;30.40;;;;;;;18.68;78.92;98233.05;88480;1273;99563;-70
2022/08/21 04:56:45;;;;;;;53.30;30.80;;;;;;;18.71;78.80;98233.83;88378;1274;24153;-71
2022/08/21 04:58:49;;;;;;;55.30;31.20;;;;;;;18.74;78.96;98230.55;88584;1273;22554;-72
2022/08/21 05:00:55;;;;;;;57.00;29.90;;;;;;;18.77;78.94;98234.67;88494;1276;98036;-72
2022/08/21 05:03:00;;;;;;;55.80;30.60;;;;;;;18.81;78.93;98235.02;88719;1273;22631;-72
2022/08/21 05:05:01;;;;;;;53.30;30.60;;;;;;;18.84;78.88;98234.60;88576;1275;22668;-72
2022/08/21 05:07:07;;;;;;;48.90;29.60;;;;;;;18.86;78.94;98236.86;88263;1273;99104;-73
2022/08/21 05:09:12;;;;;;;45.50;30.60;;;;;;;18.90;78.98;98238.00;88598;1273;23078;-72
2022/08/21 05:11:14;;;;;;;56.00;31.40;;;;;;;18.93;78.97;98233.94;88624;1273;25295;-70
2022/08/21 05:13:16;;;;;;;53.00;30.90;;;;;;;18.96;78.99;98235.41;88592;1272;98960;-71
2022/08/21 05:15:18;;;;;;;54.10;29.90;;;;;;;18.98;78.86;98235.04;88687;1273;22596;-71
2022/08/21 05:17:19;;;;;;;50.50;32.10;;;;;;;19.01;78.91;98233.54;88568;1272;23506;-72
2022/08/21 05:19:21;;;;;;;48.80;31.00;;;;;;;19.04;78.93;98235.87;88553;1273;23138;-71
2022/08/21 05:21:23;;;;;;;52.10;30.90;;;;;;;19.09;79.10;98238.83;88556;1275;22672;-70
2022/08/21 05:23:25;;;;;;;49.10;30.30;;;;;;;19.14;79.16;98241.00;88434;1273;98078;-72
2022/08/21 05:25:27;;;;;;;46.10;30.20;;;;;;;19.19;78.92;98242.90;88544;1272;22567;-72
2022/08/21 05:27:29;;;;;;;54.80;30.30;;;;;;;19.24;79.11;98242.60;88449;1275;22723;-71
2022/08/21 05:29:31;;;;;;;48.80;29.40;;;;;;;19.27;78.94;98240.15;88376;1275;99427;-72
2022/08/21 05:31:33;;;;;;;52.60;30.50;;;;;;;19.31;78.92;98237.48;88555;1273;22682;-72
2022/08/21 05:33:35;;;;;;;55.50;30.10;;;;;;;19.35;78.96;98241.89;88593;1273;22638;-70
2022/08/21 05:35:38;;;;;;;50.50;29.20;;;;;;;19.39;78.99;98242.60;88654;1272;98114;-70
2022/08/21 05:37:40;;;;;;;53.30;28.80;;;;;;;19.42;78.99;98245.63;88610;1273;23486;-72
2022/08/21 05:39:41;;;;;;;50.60;29.50;;;;;;;19.46;78.93;98248.11;88591;1275;22691;-71
2022/08/21 05:41:43;;;;;;;52.70;28.00;;;;;;;19.48;78.92;98244.20;88545;1273;100080;-72
2022/08/21 05:43:45;;;;;;;49.10;29.30;;;;;;;19.50;78.98;98240.23;88589;1273;22538;-71
2022/08/21 05:45:47;;;;;;;51.90;28.90;;;;;;;19.52;78.94;98239.83;88541;1273;22579;-71
2022/08/21 05:47:48;;;;;;;40.50;25.00;;;;;;;19.55;78.97;98238.50;88581;1273;98451;-72
2022/08/21 05:49:50;;;;;;;48.30;26.30;;;;;;;19.59;78.88;98236.19;88550;1275;22636;-71
2022/08/21 05:51:52;;;;;;;37.30;25.40;;;;;;;19.63;78.92;98237.44;88603;1275;23217;-71
2022/08/21 05:53:53;;;;;;;41.10;25.20;;;;;;;19.67;78.87;98238.42;88535;1273;99263;-72
2022/08/21 05:55:55;;;;;;;45.70;24.90;;;;;;;19.70;78.89;98235.29;88538;1273;25647;-69
2022/08/21 05:57:57;;;;;;;44.00;24.00;;;;;;;19.75;78.73;98233.40;88580;1274;23058;-72
2022/08/21 05:59:58;;;;;;;41.70;25.70;;;;;;;19.79;78.78;98236.02;88558;1273;98202;-72
2022/08/21 06:02:02;;;;;;;38.40;23.80;;;;;;;19.82;78.84;98236.25;88587;1276;23916;-71
2022/08/21 06:04:04;;;;;;;37.80;23.40;;;;;;;19.88;78.70;98240.16;88920;1274;22715;-71
2022/08/21 06:06:06;;;;;;;36.10;23.80;;;;;;;19.90;78.66;98237.27;88379;1273;99940;-72
2022/08/21 06:08:08;;;;;;;45.60;24.30;;;;;;;19.94;78.60;98238.84;88826;1273;23111;-70
2022/08/21 06:10:10;;;;;;;43.20;24.00;;;;;;;19.99;78.59;98238.55;88599;1273;22681;-71
2022/08/21 06:12:12;;;;;;;36.30;23.30;;;;;;;20.02;78.61;98238.58;88734;1273;98997;-71
2022/08/21 06:14:15;;;;;;;38.60;22.00;;;;;;;20.07;78.54;98240.37;88654;1273;24286;-70
2022/08/21 06:16:17;;;;;;;43.30;22.00;;;;;;;20.10;78.44;98243.38;88499;1273;22591;-70
2022/08/21 06:18:19;;;;;;;36.30;23.20;;;;;;;20.13;78.46;98242.88;88401;1274;98986;-70
2022/08/21 06:20:21;;;;;;;40.30;22.20;;;;;;;20.16;78.42;98243.86;88548;1274;22813;-71
2022/08/21 06:22:23;;;;;;;33.80;21.10;;;;;;;20.19;78.40;98239.92;88623;1273;24390;-71
2022/08/21 06:24:25;;;;;;;53.40;23.50;;;;;;;20.23;78.33;98236.37;88347;1275;98993;-71
2022/08/21 06:26:28;;;;;;;39.10;22.50;;;;;;;20.27;78.32;98238.84;88507;1274;22669;-70
2022/08/21 06:28:31;;;;;;;40.70;22.80;;;;;;;20.29;78.38;98233.96;88845;1273;22628;-70
2022/08/21 06:30:34;;;;;;;41.50;23.00;;;;;;;20.33;78.29;98233.41;88624;1273;99511;-70
2022/08/21 06:32:36;;;;;;;38.30;22.60;;;;;;;20.36;78.29;98233.07;90853;1273;22389;-70
2022/08/21 06:34:39;;;;;;;38.10;21.30;;;;;;;20.40;78.27;98231.23;89318;1273;22574;-70
2022/08/21 06:36:42;;;;;;;44.40;22.40;;;;;;;20.47;78.23;98234.52;88905;1273;98913;-70
2022/08/21 06:38:43;;;;;;;41.40;22.80;;;;;;;20.52;78.15;98235.36;87818;1274;22644;-71
2022/08/21 06:40:45;;;;;;;34.30;22.30;;;;;;;20.57;78.12;98242.94;88544;1275;22682;-69
2022/08/21 06:42:47;;;;;;;38.40;22.00;;;;;;;20.60;78.05;98244.77;88679;1273;98981;-71
2022/08/21 06:44:49;;;;;;;33.20;20.70;;;;;;;20.63;78.03;98241.10;88598;1273;22592;-71
2022/08/21 06:46:50;;;;;;;41.40;22.00;;;;;;;20.65;77.99;98243.09;88791;1273;25564;-69
2022/08/21 06:48:52;;;;;;;36.20;22.40;;;;;;;20.63;77.91;98244.17;88513;1273;99037;-70
2022/08/21 06:50:55;;;;;;;39.60;22.60;;;;;;;20.64;77.89;98248.36;88600;1273;24356;-70
2022/08/21 06:53:03;;;;;;;35.80;21.10;;;;;;;20.65;77.85;98246.58;88690;1273;24133;-70
2022/08/21 06:55:08;;;;;;;37.10;22.10;;;;;;;20.68;77.93;98249.73;88640;1273;99425;-71
2022/08/21 06:57:09;;;;;;;32.80;20.60;;;;;;;20.70;77.90;98252.39;88778;1273;24204;-71
2022/08/21 06:59:11;;;;;;;35.70;21.20;;;;;;;20.72;77.93;98255.35;88623;1275;22593;-69
2022/08/21 07:01:13;;;;;;;33.80;20.80;;;;;;;20.76;77.81;98255.48;88669;1273;98772;-70
2022/08/21 07:03:21;;;;;;;37.40;22.40;;;;;;;20.78;77.80;98258.48;88855;1273;22620;-70
2022/08/21 07:05:27;;;;;;;33.20;21.30;;;;;;;20.80;77.72;98257.41;88497;1273;99237;-70
2022/08/21 07:07:29;;;;;;;33.80;21.10;;;;;;;20.82;77.80;98254.88;88719;1273;22628;-70
2022/08/21 07:09:30;;;;;;;35.90;21.60;;;;;;;20.84;77.78;98254.03;88718;1273;23410;-68
2022/08/21 07:11:32;;;;;;;31.30;22.50;;;;;;;20.88;77.80;98257.00;88673;1273;100913;-70
2022/08/21 07:13:34;;;;;;;41.00;21.00;;;;;;;20.91;77.69;98254.81;88673;1273;22514;-71
2022/08/21 07:15:35;;;;;;;32.90;19.80;;;;;;;20.96;77.73;98259.77;88633;1273;23500;-70
2022/08/21 07:17:37;;;;;;;29.20;19.50;;;;;;;20.99;77.65;98257.44;88646;1273;99930;-70
2022/08/21 07:19:39;;;;;;;34.40;20.40;;;;;;;21.03;77.63;98263.83;88664;1273;22714;-69
2022/08/21 07:21:41;;;;;;;29.10;19.50;;;;;;;21.05;77.57;98258.48;88720;1273;23102;-71
2022/08/21 07:23:46;;;;;;;28.30;18.80;;;;;;;21.07;77.49;98260.86;88822;1273;98010;-71
2022/08/21 07:25:47;;;;;;;41.40;19.70;;;;;;;21.10;77.58;98263.13;89054;1273;23818;-70
2022/08/21 07:27:49;;;;;;;33.50;19.30;;;;;;;21.11;77.50;98263.55;88979;1273;22600;-70
2022/08/21 07:29:51;;;;;;;36.20;20.00;;;;;;;21.15;77.47;98263.52;88783;1273;99041;-71
2022/08/21 07:31:52;;;;;;;29.90;19.20;;;;;;;21.17;77.43;98260.59;88846;1271;22622;-71
2022/08/21 07:33:54;;;;;;;34.50;19.80;;;;;;;21.18;77.53;98262.23;88760;1273;22561;-71
2022/08/21 07:35:56;;;;;;;32.60;19.20;;;;;;;21.21;77.45;98263.62;88736;1273;98094;-71
2022/08/21 07:37:58;;;;;;;31.70;19.70;;;;;;;21.22;77.43;98262.52;88805;1273;22568;-71
2022/08/21 07:40:00;;;;;;;32.40;20.10;;;;;;;21.25;77.45;98260.45;88698;1275;22724;-69
2022/08/21 07:42:03;;;;;;;27.10;19.60;;;;;;;21.26;77.33;98259.80;88560;1275;99543;-71
2022/08/21 07:44:04;;;;;;;33.70;19.60;;;;;;;21.28;77.33;98260.21;88593;1274;22789;-70
2022/08/21 07:46:06;;;;;;;32.00;18.40;;;;;;;21.30;77.27;98259.48;88698;1273;22546;-70
2022/08/21 07:48:08;;;;;;;31.60;20.20;;;;;;;21.31;77.28;98257.73;88577;1275;99244;-69
2022/08/21 07:50:11;;;;;;;34.90;20.00;;;;;;;21.33;77.23;98260.73;88755;1273;22629;-73
2022/08/21 07:52:13;;;;;;;37.30;20.00;;;;;;;21.36;77.24;98260.75;88817;1273;22712;-70
2022/08/21 07:54:15;;;;;;;36.60;20.80;;;;;;;21.39;77.21;98257.55;88711;1273;98118;-69
2022/08/21 07:56:16;;;;;;;44.10;20.80;;;;;;;21.43;77.15;98259.98;88578;1273;23611;-71
2022/08/21 07:58:19;;;;;;;33.20;19.10;;;;;;;21.47;77.23;98262.52;88812;1273;22608;-71
2022/08/21 08:00:25;;;;;;;35.30;19.00;;;;;;;21.49;77.20;98257.48;88570;1273;98156;-72
2022/08/21 08:02:29;;;;;;;30.00;19.00;;;;;;;21.52;77.09;98255.68;88686;1275;22588;-71
2022/08/21 08:04:31;;;;;;;33.00;19.40;;;;;;;21.56;77.02;98256.77;88579;1273;22721;-70
2022/08/21 08:06:33;;;;;;;26.00;18.50;;;;;;;21.57;77.02;98253.89;88603;1273;98912;-70
2022/08/21 08:08:34;;;;;;;30.80;19.20;;;;;;;21.58;77.10;98255.96;88083;1273;23279;-71
2022/08/21 08:10:38;;;;;;;37.50;20.00;;;;;;;21.60;77.06;98260.27;88696;1273;24253;-69
2022/08/21 08:12:41;;;;;;;44.90;19.90;;;;;;;21.64;77.04;98258.81;89020;1274;99201;-70
2022/08/21 08:14:43;;;;;;;41.50;20.10;;;;;;;21.67;77.11;98253.42;88629;1273;22854;-70
2022/08/21 08:16:45;;;;;;;32.80;19.20;;;;;;;21.72;77.10;98252.07;88456;1274;22701;-71
2022/08/21 08:18:46;;;;;;;34.30;19.10;;;;;;;21.77;76.98;98251.54;88658;1273;99553;-70
2022/08/21 08:20:48;;;;;;;35.80;19.80;;;;;;;21.83;77.03;98253.40;88649;1273;23021;-70
2022/08/21 08:22:50;;;;;;;33.20;20.10;;;;;;;21.92;77.07;98251.01;88225;1278;22609;-71
2022/08/21 08:24:54;;;;;;;31.30;18.80;;;;;;;22.01;76.89;98248.61;88498;1274;98892;-70
2022/08/21 08:26:56;;;;;;;28.80;19.20;;;;;;;22.09;76.87;98248.62;88727;1273;22641;-69
2022/08/21 08:28:58;;;;;;;33.20;18.40;;;;;;;22.17;76.81;98248.30;88454;1275;22593;-69
2022/08/21 08:31:00;;;;;;;38.20;19.30;;;;;;;22.24;76.73;98250.71;88482;1273;99487;-71
2022/08/21 08:33:02;;;;;;;29.20;18.50;;;;;;;22.33;76.74;98252.55;88371;1276;24091;-70
2022/08/21 08:35:07;;;;;;;33.20;18.80;;;;;;;22.40;76.60;98252.88;88484;1273;22557;-70
2022/08/21 08:37:10;;;;;;;30.00;19.10;;;;;;;22.46;76.46;98250.77;88456;1275;99197;-71
2022/08/21 08:39:11;;;;;;;37.00;18.90;;;;;;;22.53;76.52;98246.63;88495;1276;24223;-70
2022/08/21 08:41:21;;;;;;;34.50;18.10;;;;;;;22.57;76.36;98246.66;88577;1272;24890;-71
2022/08/21 08:43:23;;;;;;;31.20;18.40;;;;;;;22.64;76.42;98247.26;88501;1273;22870;-71
2022/08/21 08:45:26;;;;;;;25.80;18.00;;;;;;;22.70;76.29;98247.25;88585;1273;25556;-71
2022/08/21 08:47:31;;;;;;;40.20;18.90;;;;;;;22.79;76.13;98243.25;88687;1273;100047;-71
2022/08/21 08:50:00;;;;;;;41.80;18.40;;;;;;;22.86;76.10;98246.69;88589;1273;24100;-71
2022/08/21 08:52:22;;;;;;;33.50;18.40;;;;;;;22.93;75.99;98244.83;88654;1273;22602;-71
2022/08/21 08:54:44;;;;;;;33.20;17.70;;;;;;;23.01;75.84;98243.98;88920;1273;98836;-72
2022/08/21 08:56:47;;;;;;;31.90;19.20;;;;;;;23.10;75.77;98243.75;88706;1273;24286;-71
2022/08/21 08:58:52;;;;;;;32.00;18.70;;;;;;;23.17;75.67;98239.89;88499;1274;22724;-69
2022/08/21 09:00:55;;;;;;;31.20;17.90;;;;;;;23.23;75.56;98242.59;88421;1276;99808;-70
2022/08/21 09:03:00;;;;;;;26.60;18.90;;;;;;;23.28;75.36;98239.95;88440;1276;22754;-72
2022/08/21 09:05:02;;;;;;;40.00;19.10;;;;;;;23.35;75.37;98234.69;88839;1273;22857;-71
2022/08/21 09:07:37;;;;;;;28.90;17.10;;;;;;;23.41;75.32;98235.20;88434;1274;99381;-71
2022/08/21 09:09:54;;;;;;;32.20;18.70;;;;;;;23.51;75.24;98232.50;89374;1273;22612;-70
2022/08/21 09:12:18;;;;;;;35.10;18.10;;;;;;;23.61;75.34;98229.96;88782;1273;99582;-71
2022/08/21 09:14:40;;;;;;;37.80;18.40;;;;;;;23.74;74.95;98226.45;88667;1272;24194;-71
2022/08/21 09:17:19;;;;;;;35.20;18.40;;;;;;;23.82;74.92;98223.39;88575;1275;22606;-71
2022/08/21 09:19:36;;;;;;;34.90;18.50;;;;;;;23.93;74.82;98221.43;88508;1273;25950;-70
2022/08/21 09:21:49;;;;;;;36.60;17.20;;;;;;;24.08;75.01;98221.58;88813;1273;22587;-72
2022/08/21 09:24:10;;;;;;;35.10;18.30;;;;;;;24.20;74.66;98217.95;88572;1273;99529;-72
2022/08/21 09:26:26;;;;;;;33.80;18.70;;;;;;;24.31;74.64;98218.87;88720;1273;22753;-71
2022/08/21 09:28:33;;;;;;;32.20;18.10;;;;;;;24.38;74.20;98214.64;88611;1273;22603;-71